This is the latest recevied weather packets stored in our database for station/object DOUGLAS. If no packets are shown the sender has not sent any weather packets the latest 10 day(s).
| Time | Temp. | Humidity | Pressure | Rain* | Wind** | Luminosity | Snow |
|---|---|---|---|---|---|---|---|
| 1777764603 | 20.56° C | 58% | 0 hPa | - | - | - | - |
| 1777764003 | 20.56° C | 56% | 0 hPa | - | - | - | - |
| 1777763403 | 20.56° C | 58% | 0 hPa | - | - | - | - |
| 1777762804 | 20.56° C | 59% | 0 hPa | - | - | - | - |
| 1777762202 | 21.11° C | 57% | 0 hPa | - | - | - | - |
| 1777761603 | 21.11° C | 56% | 0 hPa | - | - | - | - |
| 1777761003 | 21.11° C | 53% | 0 hPa | - | - | - | - |
| 1777760403 | 21.11° C | 60% | 0 hPa | - | - | - | - |
| 1777759803 | 20° C | 58% | 0 hPa | - | - | - | - |
| 1777759204 | 20° C | 58% | 0 hPa | - | - | - | - |
| 1777758602 | 20° C | 60% | 0 hPa | - | - | - | - |
| 1777758003 | 19.44° C | 60% | 0 hPa | - | - | - | - |
| 1777757403 | 20° C | 59% | 0 hPa | - | - | - | - |
| 1777756803 | 20° C | 58% | 0 hPa | - | - | - | - |
| 1777756203 | 20° C | 59% | 0 hPa | - | - | - | - |
| 1777755604 | 20.56° C | 56% | 0 hPa | - | - | - | - |
| 1777755002 | 18.89° C | 62% | 0 hPa | - | - | - | - |
| 1777754408 | 18.89° C | 62% | 0 hPa | - | - | - | - |
| 1777753803 | 19.44° C | 62% | 0 hPa | - | - | - | - |
| 1777753203 | 18.33° C | 67% | 0 hPa | - | - | - | - |
| 1777752603 | 18.33° C | 69% | 0 hPa | - | - | - | - |
| 1777752004 | 18.33° C | 64% | 0 hPa | - | - | - | - |
| 1777751403 | 17.78° C | 69% | 0 hPa | - | - | - | - |
| 1777750802 | 16.67° C | 72% | 0 hPa | - | - | - | - |
| 1777750203 | 16.67° C | 74% | 0 hPa | - | - | - | - |
* Rain since midnight (hover to see other rain measurements)
** Current wind speed in m/s (hover to see current wind gust speed)